sensor_id;sensor_type;location;lat;lon;timestamp;pressure;altitude;pressure_sealevel;temperature;humidity
11710;BME280;5911;51.036;6.972;2022-07-29T00:01:14;100684.91;;;21.91;57.34
11710;BME280;5911;51.036;6.972;2022-07-29T00:03:45;100687.59;;;21.91;58.22
11710;BME280;5911;51.036;6.972;2022-07-29T00:06:13;100678.72;;;21.90;58.96
11710;BME280;5911;51.036;6.972;2022-07-29T00:08:41;100686.97;;;21.89;59.16
11710;BME280;5911;51.036;6.972;2022-07-29T00:11:09;100681.78;;;21.87;59.26
11710;BME280;5911;51.036;6.972;2022-07-29T00:13:37;100684.91;;;21.84;59.69
11710;BME280;5911;51.036;6.972;2022-07-29T00:16:06;100681.97;;;21.79;59.21
11710;BME280;5911;51.036;6.972;2022-07-29T00:18:34;100672.88;;;21.80;59.63
11710;BME280;5911;51.036;6.972;2022-07-29T00:21:02;100669.16;;;21.81;59.28
11710;BME280;5911;51.036;6.972;2022-07-29T00:23:30;100665.00;;;21.79;58.40
11710;BME280;5911;51.036;6.972;2022-07-29T00:26:02;100660.47;;;21.79;59.71
11710;BME280;5911;51.036;6.972;2022-07-29T00:28:30;100667.91;;;21.77;59.37
11710;BME280;5911;51.036;6.972;2022-07-29T00:30:58;100659.41;;;21.73;60.70
11710;BME280;5911;51.036;6.972;2022-07-29T00:33:28;100656.25;;;21.70;60.48
11710;BME280;5911;51.036;6.972;2022-07-29T00:35:56;100651.34;;;21.73;59.97
11710;BME280;5911;51.036;6.972;2022-07-29T00:38:22;100648.00;;;21.71;61.24
11710;BME280;5911;51.036;6.972;2022-07-29T00:40:50;100645.31;;;21.71;61.96
11710;BME280;5911;51.036;6.972;2022-07-29T00:43:18;100639.53;;;21.68;62.00
11710;BME280;5911;51.036;6.972;2022-07-29T00:45:46;100635.97;;;21.61;62.32
11710;BME280;5911;51.036;6.972;2022-07-29T00:48:14;100637.44;;;21.63;62.13
11710;BME280;5911;51.036;6.972;2022-07-29T00:50:43;100633.47;;;21.59;61.63
11710;BME280;5911;51.036;6.972;2022-07-29T00:53:11;100641.16;;;21.62;61.87
11710;BME280;5911;51.036;6.972;2022-07-29T00:55:39;100633.69;;;21.58;61.96
11710;BME280;5911;51.036;6.972;2022-07-29T00:58:08;100637.38;;;21.57;61.31
11710;BME280;5911;51.036;6.972;2022-07-29T01:00:36;100629.13;;;21.58;60.55
11710;BME280;5911;51.036;6.972;2022-07-29T01:03:04;100627.09;;;21.60;60.56
11710;BME280;5911;51.036;6.972;2022-07-29T01:05:32;100622.31;;;21.56;61.56
11710;BME280;5911;51.036;6.972;2022-07-29T01:08:18;100614.84;;;21.51;62.00
11710;BME280;5911;51.036;6.972;2022-07-29T01:10:46;100624.31;;;21.47;62.00
11710;BME280;5911;51.036;6.972;2022-07-29T01:13:16;100610.31;;;21.52;61.67
11710;BME280;5911;51.036;6.972;2022-07-29T01:15:46;100610.72;;;21.55;61.76
11710;BME280;5911;51.036;6.972;2022-07-29T01:18:18;100612.16;;;21.51;61.47
11710;BME280;5911;51.036;6.972;2022-07-29T01:21:09;100611.16;;;21.52;62.09
11710;BME280;5911;51.036;6.972;2022-07-29T01:23:58;100607.81;;;21.50;63.75
11710;BME280;5911;51.036;6.972;2022-07-29T01:26:35;100612.38;;;21.50;63.31
11710;BME280;5911;51.036;6.972;2022-07-29T01:29:15;100602.47;;;21.50;63.75
11710;BME280;5911;51.036;6.972;2022-07-29T01:31:48;100599.59;;;21.52;62.59
11710;BME280;5911;51.036;6.972;2022-07-29T01:34:29;100596.69;;;21.53;62.61
11710;BME280;5911;51.036;6.972;2022-07-29T01:37:05;100596.91;;;21.52;62.36
11710;BME280;5911;51.036;6.972;2022-07-29T01:39:36;100590.88;;;21.50;63.86
11710;BME280;5911;51.036;6.972;2022-07-29T01:42:09;100587.38;;;21.49;63.74
11710;BME280;5911;51.036;6.972;2022-07-29T01:44:43;100586.75;;;21.47;63.15
11710;BME280;5911;51.036;6.972;2022-07-29T01:47:15;100586.75;;;21.47;62.38
11710;BME280;5911;51.036;6.972;2022-07-29T01:49:47;100575.63;;;21.50;62.74
11710;BME280;5911;51.036;6.972;2022-07-29T01:52:21;100582.63;;;21.51;62.25
11710;BME280;5911;51.036;6.972;2022-07-29T01:54:53;100586.75;;;21.47;63.16
11710;BME280;5911;51.036;6.972;2022-07-29T01:57:26;100580.94;;;21.44;62.44
11710;BME280;5911;51.036;6.972;2022-07-29T01:59:57;100586.28;;;21.44;63.29
11710;BME280;5911;51.036;6.972;2022-07-29T02:02:26;100582.16;;;21.41;62.68
11710;BME280;5911;51.036;6.972;2022-07-29T02:04:56;100581.50;;;21.39;62.61
11710;BME280;5911;51.036;6.972;2022-07-29T02:07:26;100587.94;;;21.38;62.97
11710;BME280;5911;51.036;6.972;2022-07-29T02:09:58;100586.28;;;21.37;63.04
11710;BME280;5911;51.036;6.972;2022-07-29T02:12:28;100589.56;;;21.39;63.57
11710;BME280;5911;51.036;6.972;2022-07-29T02:15:02;100580.91;;;21.37;63.18
11710;BME280;5911;51.036;6.972;2022-07-29T02:17:33;100572.59;;;21.32;63.40
11710;BME280;5911;51.036;6.972;2022-07-29T02:20:08;100586.47;;;21.35;63.19
11710;BME280;5911;51.036;6.972;2022-07-29T02:22:38;100574.44;;;21.31;63.18
11710;BME280;5911;51.036;6.972;2022-07-29T02:25:08;100573.81;;;21.29;63.10
11710;BME280;5911;51.036;6.972;2022-07-29T02:27:40;100575.66;;;21.29;62.83
11710;BME280;5911;51.036;6.972;2022-07-29T02:30:11;100575.66;;;21.29;63.39
11710;BME280;5911;51.036;6.972;2022-07-29T02:32:41;100581.03;;;21.29;63.28
11710;BME280;5911;51.036;6.972;2022-07-29T02:35:14;100573.38;;;21.26;63.75
11710;BME280;5911;51.036;6.972;2022-07-29T02:37:43;100576.25;;;21.24;64.51
11710;BME280;5911;51.036;6.972;2022-07-29T02:40:14;100572.13;;;21.22;64.87
11710;BME280;5911;51.036;6.972;2022-07-29T02:42:43;100550.50;;;21.08;65.40
11710;BME280;5911;51.036;6.972;2022-07-29T02:45:14;100574.19;;;21.26;65.40
11710;BME280;5911;51.036;6.972;2022-07-29T02:47:43;100572.53;;;21.25;65.26
11710;BME280;5911;51.036;6.972;2022-07-29T02:50:17;100576.69;;;21.28;65.92
11710;BME280;5911;51.036;6.972;2022-07-29T02:52:52;100583.72;;;21.29;65.90
11710;BME280;5911;51.036;6.972;2022-07-29T02:55:25;100585.38;;;21.30;66.70
11710;BME280;5911;51.036;6.972;2022-07-29T02:57:58;100587.19;;;21.23;65.68
11710;BME280;5911;51.036;6.972;2022-07-29T03:00:31;100590.50;;;21.25;66.77
11710;BME280;5911;51.036;6.972;2022-07-29T03:03:04;100602.06;;;21.25;66.33
11710;BME280;5911;51.036;6.972;2022-07-29T03:05:35;100614.66;;;21.25;63.95
11710;BME280;5911;51.036;6.972;2022-07-29T03:08:06;100617.97;;;21.27;61.56
11710;BME280;5911;51.036;6.972;2022-07-29T03:10:34;100611.38;;;21.29;62.24
11710;BME280;5911;51.036;6.972;2022-07-29T03:13:05;100610.56;;;21.29;62.52
11710;BME280;5911;51.036;6.972;2022-07-29T03:15:35;100614.25;;;21.28;63.12
11710;BME280;5911;51.036;6.972;2022-07-29T03:18:05;100602.66;;;21.21;64.73
11710;BME280;5911;51.036;6.972;2022-07-29T03:20:34;100617.56;;;21.23;64.26
11710;BME280;5911;51.036;6.972;2022-07-29T03:23:02;100627.44;;;21.23;64.04
11710;BME280;5911;51.036;6.972;2022-07-29T03:25:30;100627.44;;;21.23;63.56
11710;BME280;5911;51.036;6.972;2022-07-29T03:27:58;100633.53;;;21.17;62.32
11710;BME280;5911;51.036;6.972;2022-07-29T03:30:26;100627.16;;;21.18;63.97
11710;BME280;5911;51.036;6.972;2022-07-29T03:32:59;100624.13;;;21.21;64.24
11710;BME280;5911;51.036;6.972;2022-07-29T03:35:28;100629.50;;;21.21;64.58
11710;BME280;5911;51.036;6.972;2022-07-29T03:37:58;100626.53;;;21.16;62.85
11710;BME280;5911;51.036;6.972;2022-07-29T03:40:30;100629.50;;;21.21;62.12
11710;BME280;5911;51.036;6.972;2022-07-29T03:43:00;100625.31;;;21.18;62.20
11710;BME280;5911;51.036;6.972;2022-07-29T03:45:30;100631.50;;;21.19;62.86
11710;BME280;5911;51.036;6.972;2022-07-29T03:48:04;100623.84;;;21.16;62.11
11710;BME280;5911;51.036;6.972;2022-07-29T03:50:33;100630.69;;;21.18;62.39
11710;BME280;5911;51.036;6.972;2022-07-29T03:53:02;100627.53;;;21.15;61.62
11710;BME280;5911;51.036;6.972;2022-07-29T03:55:35;100636.88;;;21.19;60.25
11710;BME280;5911;51.036;6.972;2022-07-29T03:58:04;100628.66;;;21.20;60.23
11710;BME280;5911;51.036;6.972;2022-07-29T04:00:33;100634.56;;;21.16;59.61
11710;BME280;5911;51.036;6.972;2022-07-29T04:03:03;100616.16;;;21.13;60.16
11710;BME280;5911;51.036;6.972;2022-07-29T04:05:37;100630.88;;;21.17;60.12
11710;BME280;5911;51.036;6.972;2022-07-29T04:08:05;100630.88;;;21.17;59.42
11710;BME280;5911;51.036;6.972;2022-07-29T04:10:33;100645.94;;;21.18;59.19
11710;BME280;5911;51.036;6.972;2022-07-29T04:13:01;100647.97;;;21.16;58.54
11710;BME280;5911;51.036;6.972;2022-07-29T04:15:29;100641.34;;;21.12;58.30
11710;BME280;5911;51.036;6.972;2022-07-29T04:17:57;100635.97;;;21.12;58.00
11710;BME280;5911;51.036;6.972;2022-07-29T04:20:27;100645.50;;;21.14;57.98
11710;BME280;5911;51.036;6.972;2022-07-29T04:22:55;100638.44;;;21.06;57.62
11710;BME280;5911;51.036;6.972;2022-07-29T04:25:23;100639.19;;;21.00;57.74
11710;BME280;5911;51.036;6.972;2022-07-29T04:27:50;100629.84;;;20.96;57.31
11710;BME280;5911;51.036;6.972;2022-07-29T04:30:31;100634.00;;;20.99;57.86
11710;BME280;5911;51.036;6.972;2022-07-29T04:33:00;100635.28;;;21.03;57.34
11710;BME280;5911;51.036;6.972;2022-07-29T04:35:30;100630.50;;;20.98;57.50
11710;BME280;5911;51.036;6.972;2022-07-29T04:38:05;100638.53;;;20.98;57.49
11710;BME280;5911;51.036;6.972;2022-07-29T04:40:42;100638.16;;;21.01;58.21
11710;BME280;5911;51.036;6.972;2022-07-29T04:43:10;100638.16;;;21.01;57.61
11710;BME280;5911;51.036;6.972;2022-07-29T04:45:41;100631.41;;;21.05;57.13
11710;BME280;5911;51.036;6.972;2022-07-29T04:48:08;100628.44;;;21.00;57.39
11710;BME280;5911;51.036;6.972;2022-07-29T04:50:39;100630.50;;;20.98;57.59
11710;BME280;5911;51.036;6.972;2022-07-29T04:53:07;100628.00;;;20.97;57.16
11710;BME280;5911;51.036;6.972;2022-07-29T04:55:35;100636.03;;;20.97;57.41
11710;BME280;5911;51.036;6.972;2022-07-29T04:58:04;100640.41;;;20.98;57.34
11710;BME280;5911;51.036;6.972;2022-07-29T05:00:32;100643.72;;;21.00;57.74
11710;BME280;5911;51.036;6.972;2022-07-29T05:03:00;100639.19;;;21.00;57.11
11710;BME280;5911;51.036;6.972;2022-07-29T05:05:28;100638.16;;;21.01;57.30
11710;BME280;5911;51.036;6.972;2022-07-29T05:07:57;100649.28;;;20.98;57.72
11710;BME280;5911;51.036;6.972;2022-07-29T05:10:25;100649.53;;;21.03;57.86
11710;BME280;5911;51.036;6.972;2022-07-29T05:12:53;100659.25;;;21.04;57.86
11710;BME280;5911;51.036;6.972;2022-07-29T05:15:21;100666.47;;;21.04;57.29
11710;BME280;5911;51.036;6.972;2022-07-29T05:17:50;100664.41;;;21.06;57.58
11710;BME280;5911;51.036;6.972;2022-07-29T05:20:17;100667.53;;;21.10;58.08
11710;BME280;5911;51.036;6.972;2022-07-29T05:22:52;100665.84;;;21.08;58.22
11710;BME280;5911;51.036;6.972;2022-07-29T05:25:21;100674.38;;;21.12;57.76
11710;BME280;5911;51.036;6.972;2022-07-29T05:28:08;100663.63;;;21.12;58.25
11710;BME280;5911;51.036;6.972;2022-07-29T05:30:36;100660.13;;;21.12;57.54
11710;BME280;5911;51.036;6.972;2022-07-29T05:33:04;100664.47;;;21.13;57.54
11710;BME280;5911;51.036;6.972;2022-07-29T05:35:32;100671.69;;;21.12;57.54
11710;BME280;5911;51.036;6.972;2022-07-29T05:38:01;100672.69;;;21.11;57.65
11710;BME280;5911;51.036;6.972;2022-07-29T05:40:30;100676.47;;;21.17;58.46
11710;BME280;5911;51.036;6.972;2022-07-29T05:42:58;100674.19;;;21.14;58.08
11710;BME280;5911;51.036;6.972;2022-07-29T05:45:26;100670.47;;;21.15;58.00
11710;BME280;5911;51.036;6.972;2022-07-29T05:47:54;100673.78;;;21.17;59.16
11710;BME280;5911;51.036;6.972;2022-07-29T05:50:23;100673.97;;;21.15;58.56
11710;BME280;5911;51.036;6.972;2022-07-29T05:52:51;100673.59;;;21.18;59.02
11710;BME280;5911;51.036;6.972;2022-07-29T05:55:19;100685.16;;;21.19;58.75
11710;BME280;5911;51.036;6.972;2022-07-29T05:57:48;100696.28;;;21.16;58.24
11710;BME280;5911;51.036;6.972;2022-07-29T06:00:16;100702.59;;;21.23;59.07
11710;BME280;5911;51.036;6.972;2022-07-29T06:02:44;100703.66;;;21.28;59.55
11710;BME280;5911;51.036;6.972;2022-07-29T06:05:17;100706.78;;;21.32;58.72
11710;BME280;5911;51.036;6.972;2022-07-29T06:07:45;100711.41;;;21.38;58.83
11710;BME280;5911;51.036;6.972;2022-07-29T06:10:17;100718.38;;;21.39;59.03
11710;BME280;5911;51.036;6.972;2022-07-29T06:12:50;100721.72;;;21.41;58.97
11710;BME280;5911;51.036;6.972;2022-07-29T06:15:18;100723.38;;;21.42;59.30
11710;BME280;5911;51.036;6.972;2022-07-29T06:17:46;100722.34;;;21.43;60.19
11710;BME280;5911;51.036;6.972;2022-07-29T06:20:26;100731.88;;;21.46;60.86
11710;BME280;5911;51.036;6.972;2022-07-29T06:22:56;100724.66;;;21.46;59.36
11710;BME280;5911;51.036;6.972;2022-07-29T06:25:24;100722.63;;;21.48;60.97
11710;BME280;5911;51.036;6.972;2022-07-29T06:27:53;100731.69;;;21.47;59.26
11710;BME280;5911;51.036;6.972;2022-07-29T06:30:25;100722.34;;;21.43;59.77
11710;BME280;5911;51.036;6.972;2022-07-29T06:32:56;100725.31;;;21.48;59.90
11710;BME280;5911;51.036;6.972;2022-07-29T06:35:23;100732.53;;;21.48;60.79
11710;BME280;5911;51.036;6.972;2022-07-29T06:38:08;100733.16;;;21.50;61.12
11710;BME280;5911;51.036;6.972;2022-07-29T06:40:56;100741.03;;;21.51;62.04
11710;BME280;5911;51.036;6.972;2022-07-29T06:43:32;100742.06;;;21.50;59.61
11710;BME280;5911;51.036;6.972;2022-07-29T06:46:18;100745.75;;;21.49;58.48
11710;BME280;5911;51.036;6.972;2022-07-29T06:48:46;100752.16;;;21.48;58.79
11710;BME280;5911;51.036;6.972;2022-07-29T06:51:18;100716.22;;;21.28;59.73
11710;BME280;5911;51.036;6.972;2022-07-29T06:53:49;100725.19;;;21.35;61.89
11710;BME280;5911;51.036;6.972;2022-07-29T06:56:29;100731.81;;;21.39;60.99
11710;BME280;5911;51.036;6.972;2022-07-29T06:58:58;100723.75;;;21.39;61.17
11710;BME280;5911;51.036;6.972;2022-07-29T07:01:27;100722.97;;;21.38;61.15
11710;BME280;5911;51.036;6.972;2022-07-29T07:03:55;100729.13;;;21.39;60.98
11710;BME280;5911;51.036;6.972;2022-07-29T07:06:25;100729.13;;;21.39;62.30
11710;BME280;5911;51.036;6.972;2022-07-29T07:08:55;100728.31;;;21.38;63.00
11710;BME280;5911;51.036;6.972;2022-07-29T07:11:23;100728.31;;;21.38;62.10
11710;BME280;5911;51.036;6.972;2022-07-29T07:13:55;100729.13;;;21.39;61.19
11710;BME280;5911;51.036;6.972;2022-07-29T07:16:30;100735.78;;;21.43;61.72
11710;BME280;5911;51.036;6.972;2022-07-29T07:18:59;100732.72;;;21.46;62.12
11710;BME280;5911;51.036;6.972;2022-07-29T07:21:27;100686.75;;;21.13;64.82
11710;BME280;5911;51.036;6.972;2022-07-29T07:23:57;100730.19;;;21.38;70.71
11710;BME280;5911;51.036;6.972;2022-07-29T07:26:25;100732.22;;;21.36;75.90
11710;BME280;5911;51.036;6.972;2022-07-29T07:28:53;100739.00;;;21.32;78.48
11710;BME280;5911;51.036;6.972;2022-07-29T07:31:21;100733.13;;;21.22;80.37
11710;BME280;5911;51.036;6.972;2022-07-29T07:33:54;100721.81;;;21.12;80.48
11710;BME280;5911;51.036;6.972;2022-07-29T07:36:22;100736.81;;;21.21;82.66
11710;BME280;5911;51.036;6.972;2022-07-29T07:38:51;100737.34;;;21.16;81.07
11710;BME280;5911;51.036;6.972;2022-07-29T07:41:19;100721.44;;;21.15;83.62
11710;BME280;5911;51.036;6.972;2022-07-29T07:43:47;100718.38;;;21.18;87.43
11710;BME280;5911;51.036;6.972;2022-07-29T07:46:15;100713.84;;;21.18;88.63
11710;BME280;5911;51.036;6.972;2022-07-29T07:48:45;100715.69;;;21.18;85.67
11710;BME280;5911;51.036;6.972;2022-07-29T07:51:15;100721.06;;;21.18;83.23
11710;BME280;5911;51.036;6.972;2022-07-29T07:53:43;100721.25;;;21.16;82.54
11710;BME280;5911;51.036;6.972;2022-07-29T07:56:12;100735.63;;;21.23;83.10
11710;BME280;5911;51.036;6.972;2022-07-29T07:58:43;100718.50;;;21.10;81.96
11710;BME280;5911;51.036;6.972;2022-07-29T08:01:11;100738.84;;;21.19;78.88
11710;BME280;5911;51.036;6.972;2022-07-29T08:03:39;100740.16;;;21.23;79.57
11710;BME280;5911;51.036;6.972;2022-07-29T08:06:07;100728.19;;;21.25;79.69
11710;BME280;5911;51.036;6.972;2022-07-29T08:08:36;100730.28;;;21.30;82.24
11710;BME280;5911;51.036;6.972;2022-07-29T08:11:07;100731.13;;;21.30;82.29
11710;BME280;5911;51.036;6.972;2022-07-29T08:13:40;100721.97;;;21.25;81.45
11710;BME280;5911;51.036;6.972;2022-07-29T08:16:09;100726.97;;;21.28;81.52
11710;BME280;5911;51.036;6.972;2022-07-29T08:18:42;100717.63;;;21.24;81.59
11710;BME280;5911;51.036;6.972;2022-07-29T08:21:11;100721.69;;;21.34;84.32
11710;BME280;5911;51.036;6.972;2022-07-29T08:23:43;100722.31;;;21.36;87.84
11710;BME280;5911;51.036;6.972;2022-07-29T08:26:25;100730.56;;;21.35;91.01
11710;BME280;5911;51.036;6.972;2022-07-29T08:28:53;100716.22;;;21.28;93.62
11710;BME280;5911;51.036;6.972;2022-07-29T08:31:21;100721.16;;;21.24;96.77
11710;BME280;5911;51.036;6.972;2022-07-29T08:33:49;100714.34;;;21.22;95.77
11710;BME280;5911;51.036;6.972;2022-07-29T08:36:17;100712.69;;;21.21;95.62
11710;BME280;5911;51.036;6.972;2022-07-29T08:38:48;100699.25;;;21.21;93.96
11710;BME280;5911;51.036;6.972;2022-07-29T08:41:17;100706.28;;;21.22;96.67
11710;BME280;5911;51.036;6.972;2022-07-29T08:43:45;100708.69;;;21.17;94.25
11710;BME280;5911;51.036;6.972;2022-07-29T08:46:13;100712.19;;;21.17;92.21
11710;BME280;5911;51.036;6.972;2022-07-29T08:48:42;100714.69;;;21.19;92.74
11710;BME280;5911;51.036;6.972;2022-07-29T08:51:13;100714.56;;;21.27;93.58
11710;BME280;5911;51.036;6.972;2022-07-29T08:53:42;100709.19;;;21.27;94.16
11710;BME280;5911;51.036;6.972;2022-07-29T08:56:13;100697.00;;;21.24;94.26
11710;BME280;5911;51.036;6.972;2022-07-29T08:58:43;100702.63;;;21.29;93.77
11710;BME280;5911;51.036;6.972;2022-07-29T09:01:23;100705.94;;;21.31;92.91
11710;BME280;5911;51.036;6.972;2022-07-29T09:04:03;100701.03;;;21.35;92.37
11710;BME280;5911;51.036;6.972;2022-07-29T09:06:34;100682.75;;;21.24;92.92
11710;BME280;5911;51.036;6.972;2022-07-29T09:09:04;100714.06;;;21.38;91.53
11710;BME280;5911;51.036;6.972;2022-07-29T09:11:33;100715.09;;;21.37;89.03
11710;BME280;5911;51.036;6.972;2022-07-29T09:14:01;100715.72;;;21.39;90.24
11710;BME280;5911;51.036;6.972;2022-07-29T09:16:44;100721.06;;;21.39;90.15
11710;BME280;5911;51.036;6.972;2022-07-29T09:19:21;100719.09;;;21.48;91.87
11710;BME280;5911;51.036;6.972;2022-07-29T09:21:50;100720.97;;;21.47;89.24
11710;BME280;5911;51.036;6.972;2022-07-29T09:24:42;100719.28;;;21.46;86.90
11710;BME280;5911;51.036;6.972;2022-07-29T09:27:19;100718.47;;;21.46;86.02
11710;BME280;5911;51.036;6.972;2022-07-29T09:29:55;100718.66;;;21.44;85.88
11710;BME280;5911;51.036;6.972;2022-07-29T09:32:24;100725.22;;;21.41;87.70
11710;BME280;5911;51.036;6.972;2022-07-29T09:35:13;100716.53;;;21.39;89.66
11710;BME280;5911;51.036;6.972;2022-07-29T09:37:42;100723.75;;;21.39;91.28
11710;BME280;5911;51.036;6.972;2022-07-29T09:40:15;100724.16;;;21.36;89.72
11710;BME280;5911;51.036;6.972;2022-07-29T09:42:45;100718.81;;;21.36;89.64
11710;BME280;5911;51.036;6.972;2022-07-29T09:45:26;100707.25;;;21.35;89.92
11710;BME280;5911;51.036;6.972;2022-07-29T09:47:55;100714.31;;;21.43;90.44
11710;BME280;5911;51.036;6.972;2022-07-29T09:50:35;100708.19;;;21.49;90.38
11710;BME280;5911;51.036;6.972;2022-07-29T09:53:03;100714.41;;;21.56;91.70
11710;BME280;5911;51.036;6.972;2022-07-29T09:55:31;100714.41;;;21.56;89.05
11710;BME280;5911;51.036;6.972;2022-07-29T09:58:17;100728.72;;;21.63;87.94
11710;BME280;5911;51.036;6.972;2022-07-29T10:00:46;100724.19;;;21.64;86.09
11710;BME280;5911;51.036;6.972;2022-07-29T10:03:14;100711.09;;;21.54;85.78
11710;BME280;5911;51.036;6.972;2022-07-29T10:05:43;100719.00;;;21.62;86.66
11710;BME280;5911;51.036;6.972;2022-07-29T10:08:12;100725.25;;;21.69;86.15
11710;BME280;5911;51.036;6.972;2022-07-29T10:10:42;100729.03;;;21.75;85.18
11710;BME280;5911;51.036;6.972;2022-07-29T10:13:13;100734.47;;;21.82;84.60
11710;BME280;5911;51.036;6.972;2022-07-29T10:15:44;100734.88;;;21.85;85.38
11710;BME280;5911;51.036;6.972;2022-07-29T10:18:14;100730.84;;;21.96;85.62
11710;BME280;5911;51.036;6.972;2022-07-29T10:20:44;100738.31;;;22.00;85.07
11710;BME280;5911;51.036;6.972;2022-07-29T10:23:11;100736.84;;;21.98;84.63
11710;BME280;5911;51.036;6.972;2022-07-29T10:25:40;100721.69;;;21.90;85.48
11710;BME280;5911;51.036;6.972;2022-07-29T10:28:12;100737.88;;;21.97;86.33
11710;BME280;5911;51.036;6.972;2022-07-29T10:30:44;100734.00;;;21.99;86.06
11710;BME280;5911;51.036;6.972;2022-07-29T10:33:24;100736.06;;;22.04;85.01
11710;BME280;5911;51.036;6.972;2022-07-29T10:36:07;100735.25;;;22.03;84.31
11710;BME280;5911;51.036;6.972;2022-07-29T10:38:43;100731.97;;;22.08;85.12
11710;BME280;5911;51.036;6.972;2022-07-29T10:41:29;100738.63;;;22.12;83.47
11710;BME280;5911;51.036;6.972;2022-07-29T10:44:14;100740.09;;;22.15;84.11
11710;BME280;5911;51.036;6.972;2022-07-29T10:46:46;100739.72;;;22.24;82.26
11710;BME280;5911;51.036;6.972;2022-07-29T10:49:16;100737.09;;;22.37;81.84
11710;BME280;5911;51.036;6.972;2022-07-29T10:52:02;100720.72;;;22.32;80.85
11710;BME280;5911;51.036;6.972;2022-07-29T10:54:39;100731.97;;;22.49;81.30
11710;BME280;5911;51.036;6.972;2022-07-29T10:57:20;100731.31;;;22.82;78.43
11710;BME280;5911;51.036;6.972;2022-07-29T11:00:30;100727.66;;;23.15;79.36
11710;BME280;5911;51.036;6.972;2022-07-29T11:03:00;100747.44;;;23.62;73.62
11710;BME280;5911;51.036;6.972;2022-07-29T11:05:55;100725.84;;;23.49;70.95
11710;BME280;5911;51.036;6.972;2022-07-29T11:08:44;100721.88;;;23.38;72.53
11710;BME280;5911;51.036;6.972;2022-07-29T11:11:36;100738.66;;;23.40;71.48
11710;BME280;5911;51.036;6.972;2022-07-29T11:14:09;100736.88;;;23.67;70.58
11710;BME280;5911;51.036;6.972;2022-07-29T11:17:00;100736.59;;;24.02;68.02
11710;BME280;5911;51.036;6.972;2022-07-29T11:19:34;100741.31;;;24.39;66.95
11710;BME280;5911;51.036;6.972;2022-07-29T11:22:08;100736.63;;;24.73;64.80
11710;BME280;5911;51.036;6.972;2022-07-29T11:24:37;100742.81;;;24.80;65.58
11710;BME280;5911;51.036;6.972;2022-07-29T11:27:16;100747.97;;;24.88;61.57
11710;BME280;5911;51.036;6.972;2022-07-29T11:29:51;100747.97;;;24.88;60.02
11710;BME280;5911;51.036;6.972;2022-07-29T11:32:21;100732.97;;;25.05;60.83
11710;BME280;5911;51.036;6.972;2022-07-29T11:35:11;100741.41;;;25.15;58.07
11710;BME280;5911;51.036;6.972;2022-07-29T11:37:44;100744.84;;;25.29;56.15
11710;BME280;5911;51.036;6.972;2022-07-29T11:40:21;100737.13;;;25.57;56.70
11710;BME280;5911;51.036;6.972;2022-07-29T11:42:49;100739.34;;;25.67;55.92
11710;BME280;5911;51.036;6.972;2022-07-29T11:45:26;100726.09;;;25.59;55.43
11710;BME280;5911;51.036;6.972;2022-07-29T11:48:15;100740.84;;;25.88;55.66
11710;BME280;5911;51.036;6.972;2022-07-29T11:50:57;100740.00;;;25.87;55.08
11710;BME280;5911;51.036;6.972;2022-07-29T11:53:25;100737.66;;;25.73;54.66
11710;BME280;5911;51.036;6.972;2022-07-29T11:55:58;100740.53;;;25.78;54.89
11710;BME280;5911;51.036;6.972;2022-07-29T11:58:29;100741.25;;;26.10;52.42
11710;BME280;5911;51.036;6.972;2022-07-29T12:00:59;100737.53;;;26.29;54.26
11710;BME280;5911;51.036;6.972;2022-07-29T12:03:31;100739.78;;;26.32;51.02
11710;BME280;5911;51.036;6.972;2022-07-29T12:06:11;100740.16;;;26.54;51.43
11710;BME280;5911;51.036;6.972;2022-07-29T12:08:44;100747.59;;;26.58;50.65
11710;BME280;5911;51.036;6.972;2022-07-29T12:11:17;100753.53;;;26.67;51.16
11710;BME280;5911;51.036;6.972;2022-07-29T12:13:48;100746.84;;;26.70;50.42
11710;BME280;5911;51.036;6.972;2022-07-29T12:16:16;100748.34;;;26.66;49.30
11710;BME280;5911;51.036;6.972;2022-07-29T12:18:56;100745.47;;;26.24;49.82
11710;BME280;5911;51.036;6.972;2022-07-29T12:21:26;100741.59;;;26.56;49.80
11710;BME280;5911;51.036;6.972;2022-07-29T12:23:56;100748.50;;;26.52;48.75
11710;BME280;5911;51.036;6.972;2022-07-29T12:26:34;100753.38;;;26.62;49.52
11710;BME280;5911;51.036;6.972;2022-07-29T12:29:02;100747.53;;;26.65;48.80
11710;BME280;5911;51.036;6.972;2022-07-29T12:31:37;100744.69;;;26.90;48.36
11710;BME280;5911;51.036;6.972;2022-07-29T12:34:11;100745.22;;;27.28;48.31
11710;BME280;5911;51.036;6.972;2022-07-29T12:36:41;100742.28;;;27.42;47.85
11710;BME280;5911;51.036;6.972;2022-07-29T12:39:10;100738.88;;;27.46;46.48
11710;BME280;5911;51.036;6.972;2022-07-29T12:41:39;100743.59;;;27.51;46.64
11710;BME280;5911;51.036;6.972;2022-07-29T12:44:07;100742.75;;;27.39;46.76
11710;BME280;5911;51.036;6.972;2022-07-29T12:46:35;100743.09;;;27.30;46.45
11710;BME280;5911;51.036;6.972;2022-07-29T12:49:05;100746.00;;;27.17;46.13
11710;BME280;5911;51.036;6.972;2022-07-29T12:51:34;100748.84;;;27.22;44.73
11710;BME280;5911;51.036;6.972;2022-07-29T12:54:06;100735.81;;;27.54;44.85
11710;BME280;5911;51.036;6.972;2022-07-29T12:56:35;100738.56;;;27.66;45.80
11710;BME280;5911;51.036;6.972;2022-07-29T12:59:13;100732.25;;;27.95;45.07
11710;BME280;5911;51.036;6.972;2022-07-29T13:01:42;100735.03;;;28.00;45.25
11710;BME280;5911;51.036;6.972;2022-07-29T13:04:10;100733.28;;;27.83;44.77
11710;BME280;5911;51.036;6.972;2022-07-29T13:06:40;100730.81;;;27.70;44.60
11710;BME280;5911;51.036;6.972;2022-07-29T13:09:18;100724.47;;;27.64;44.24
11710;BME280;5911;51.036;6.972;2022-07-29T13:11:48;100727.72;;;27.66;44.71
11710;BME280;5911;51.036;6.972;2022-07-29T13:14:30;100728.09;;;27.81;45.06
11710;BME280;5911;51.036;6.972;2022-07-29T13:17:04;100728.69;;;27.95;43.86
11710;BME280;5911;51.036;6.972;2022-07-29T13:19:37;100742.50;;;27.93;44.14
11710;BME280;5911;51.036;6.972;2022-07-29T13:22:07;100734.94;;;27.84;44.82
11710;BME280;5911;51.036;6.972;2022-07-29T13:24:47;100732.72;;;27.92;43.60